Time;durP1;ratioP1;P1;durP2;ratioP2;P2;SDS_P1;SDS_P2;PMS_P1;PMS_P2;Temp;Humidity;BMP_temperature;BMP_pressure;BME280_temperature;BME280_humidity;BME280_pressure;Samples;Min_cycle;Max_cycle;Signal;HPM_P1;HPM_P2
2023/02/28 00:01:07;;;;;;;1.70;1.60;;;;;;;;;;5057521;28;20051;-95
2023/02/28 00:03:34;;;;;;;2.63;2.42;;;;;;;;;;5055325;28;20045;-94
2023/02/28 00:06:01;;;;;;;3.05;2.42;;;;;;;;;;5055111;28;20052;-91
2023/02/28 00:08:28;;;;;;;1.77;1.67;;;;;;;;;;5053947;28;20602;-92
2023/02/28 00:10:54;;;;;;;2.13;2.03;;;;;;;;;;5054055;28;20485;-91
2023/02/28 00:13:21;;;;;;;2.13;2.03;;;;;;;;;;5054878;28;20060;-91
2023/02/28 00:15:59;;;;;;;2.63;2.53;;;;;;;;;;5054507;28;20050;-90
2023/02/28 00:18:25;;;;;;;2.35;2.25;;;;;;;;;;5054457;28;20053;-90
2023/02/28 00:20:52;;;;;;;3.28;3.17;;;;;;;;;;5054418;28;20045;-91
2023/02/28 00:23:18;;;;;;;2.22;2.13;;;;;;;;;;5053632;28;20044;-91
2023/02/28 00:25:45;;;;;;;2.70;2.50;;;;;;;;;;5054861;28;20048;-92
2023/02/28 00:28:12;;;;;;;2.85;2.72;;;;;;;;;;5052709;28;20467;-92
2023/02/28 00:30:38;;;;;;;1.95;1.85;;;;;;;;;;5054479;28;20045;-93
2023/02/28 00:33:06;;;;;;;3.13;2.55;;;;;;;;;;5054046;28;20445;-91
2023/02/28 00:35:33;;;;;;;2.35;2.25;;;;;;;;;;5054379;28;20060;-91
2023/02/28 00:37:59;;;;;;;2.17;2.08;;;;;;;;;;5054082;28;20041;-91
2023/02/28 00:40:26;;;;;;;2.20;2.10;;;;;;;;;;5054472;28;20056;-92
2023/02/28 00:42:52;;;;;;;2.75;2.65;;;;;;;;;;5053303;28;20067;-92
2023/02/28 00:45:19;;;;;;;5.90;5.60;;;;;;;;;;5053623;28;20044;-92
2023/02/28 00:47:49;;;;;;;3.10;2.88;;;;;;;;;;5054601;28;20053;-90
2023/02/28 00:50:17;;;;;;;3.80;3.60;;;;;;;;;;5054292;28;20144;-91
2023/02/28 00:52:45;;;;;;;8.48;2.22;;;;;;;;;;5054031;28;20049;-92
2023/02/28 00:55:11;;;;;;;3.80;2.42;;;;;;;;;;5053866;28;20057;-90
2023/02/28 00:57:38;;;;;;;2.75;2.65;;;;;;;;;;5053719;28;20045;-91
2023/02/28 01:00:06;;;;;;;5.03;4.75;;;;;;;;;;5052319;28;20048;-91
2023/02/28 01:02:32;;;;;;;1.98;1.88;;;;;;;;;;5051948;28;20053;-92
2023/02/28 01:04:59;;;;;;;2.72;2.63;;;;;;;;;;5054127;28;20075;-91
2023/02/28 01:07:25;;;;;;;3.08;2.90;;;;;;;;;;5054015;28;20045;-92
2023/02/28 01:09:53;;;;;;;2.22;2.13;;;;;;;;;;5054234;28;20056;-92
2023/02/28 01:12:20;;;;;;;2.30;2.20;;;;;;;;;;5054111;28;20056;-94
2023/02/28 01:14:46;;;;;;;3.03;2.92;;;;;;;;;;5054404;28;20490;-92
2023/02/28 01:17:13;;;;;;;2.42;2.33;;;;;;;;;;5053619;28;20053;-94
2023/02/28 01:19:39;;;;;;;2.15;2.05;;;;;;;;;;5036310;28;20050;-91
2023/02/28 01:22:06;;;;;;;1.63;1.60;;;;;;;;;;5034092;28;20095;-91
2023/02/28 01:24:33;;;;;;;2.67;2.58;;;;;;;;;;5034175;28;20053;-92
2023/02/28 01:27:01;;;;;;;2.05;1.95;;;;;;;;;;5034234;28;20049;-92
2023/02/28 01:29:28;;;;;;;1.65;1.55;;;;;;;;;;5034396;28;20045;-92
2023/02/28 01:31:54;;;;;;;2.42;2.33;;;;;;;;;;5035904;28;20049;-92
2023/02/28 01:34:21;;;;;;;2.42;2.33;;;;;;;;;;5038505;28;20049;-92
2023/02/28 01:36:47;;;;;;;2.50;2.38;;;;;;;;;;5054712;28;20053;-93
2023/02/28 01:39:14;;;;;;;1.88;1.77;;;;;;;;;;5064973;28;20048;-93
2023/02/28 01:41:41;;;;;;;3.92;3.50;;;;;;;;;;5067066;28;20090;-94
2023/02/28 01:44:22;;;;;;;3.65;3.45;;;;;;;;;;5071869;28;20071;-93
2023/02/28 01:46:50;;;;;;;2.28;2.17;;;;;;;;;;5070899;28;20052;-93
2023/02/28 01:49:17;;;;;;;1.85;1.75;;;;;;;;;;5069391;28;20049;-93
2023/02/28 01:51:50;;;;;;;3.80;3.60;;;;;;;;;;5060324;28;20049;-93
2023/02/28 01:54:19;;;;;;;3.60;3.13;;;;;;;;;;5058101;28;20521;-93
2023/02/28 01:56:48;;;;;;;3.58;3.42;;;;;;;;;;5060238;28;20056;-93
2023/02/28 01:59:20;;;;;;;3.72;3.47;;;;;;;;;;5060476;28;20049;-93
2023/02/28 02:01:47;;;;;;;3.38;2.90;;;;;;;;;;5059399;28;20049;-93
2023/02/28 02:04:15;;;;;;;2.50;2.33;;;;;;;;;;5058418;28;20480;-94
2023/02/28 02:06:43;;;;;;;3.75;3.63;;;;;;;;;;5057570;28;20041;-92
2023/02/28 02:09:10;;;;;;;2.40;2.20;;;;;;;;;;5057799;28;20056;-94
2023/02/28 02:11:37;;;;;;;2.90;2.80;;;;;;;;;;5057716;28;20457;-92
2023/02/28 02:14:21;;;;;;;2.42;2.30;;;;;;;;;;5057239;28;20056;-93
2023/02/28 02:16:53;;;;;;;4.28;3.97;;;;;;;;;;5056660;28;20044;-94
2023/02/28 02:19:37;;;;;;;2.30;2.20;;;;;;;;;;5057106;28;20140;-92
2023/02/28 02:22:17;;;;;;;2.80;2.60;;;;;;;;;;5056363;28;20049;-94
2023/02/28 02:24:58;;;;;;;4.45;4.15;;;;;;;;;;5056868;28;20056;-93
2023/02/28 02:27:28;;;;;;;4.25;3.63;;;;;;;;;;5053424;28;20602;-92
2023/02/28 02:30:15;;;;;;;4.20;3.85;;;;;;;;;;5054152;28;20048;-94
2023/02/28 02:32:48;;;;;;;2.65;2.45;;;;;;;;;;5056825;28;20491;-92
2023/02/28 02:35:18;;;;;;;5.72;2.83;;;;;;;;;;5056810;28;20049;-91
2023/02/28 02:37:49;;;;;;;2.42;2.33;;;;;;;;;;5056638;28;20049;-92
2023/02/28 02:40:18;;;;;;;3.80;2.58;;;;;;;;;;5056568;28;20477;-92
2023/02/28 02:42:48;;;;;;;3.92;3.63;;;;;;;;;;5056258;28;20052;-92
2023/02/28 02:45:18;;;;;;;3.97;3.72;;;;;;;;;;5053708;28;20051;-93
2023/02/28 02:47:46;;;;;;;4.18;3.88;;;;;;;;;;5055501;28;20399;-93
2023/02/28 02:50:14;;;;;;;3.75;3.53;;;;;;;;;;5056475;28;20094;-93
2023/02/28 02:52:45;;;;;;;3.72;3.20;;;;;;;;;;5055968;28;20102;-91
2023/02/28 02:55:13;;;;;;;3.63;2.72;;;;;;;;;;5056052;28;20053;-91
2023/02/28 02:57:42;;;;;;;5.35;4.95;;;;;;;;;;5056183;28;20102;-92
2023/02/28 03:00:09;;;;;;;3.92;3.55;;;;;;;;;;5055800;28;20052;-90
2023/02/28 03:02:37;;;;;;;3.70;3.08;;;;;;;;;;5055932;28;20049;-92
2023/02/28 03:05:05;;;;;;;5.05;4.65;;;;;;;;;;5044903;28;20045;-92
2023/02/28 03:07:32;;;;;;;4.22;3.83;;;;;;;;;;5054429;28;20049;-92
2023/02/28 03:10:00;;;;;;;4.03;3.78;;;;;;;;;;5055974;28;20079;-93
2023/02/28 03:12:33;;;;;;;5.35;3.33;;;;;;;;;;5053344;28;20095;-92
2023/02/28 03:15:05;;;;;;;3.55;3.25;;;;;;;;;;5035799;28;20046;-93
2023/02/28 03:17:37;;;;;;;3.50;3.30;;;;;;;;;;5035496;28;20561;-92
2023/02/28 03:20:07;;;;;;;3.25;3.05;;;;;;;;;;5035526;28;20065;-91
2023/02/28 03:22:41;;;;;;;3.92;2.42;;;;;;;;;;5035360;28;20084;-93
2023/02/28 03:25:13;;;;;;;4.03;3.67;;;;;;;;;;5035702;28;20640;-92
2023/02/28 03:27:42;;;;;;;3.38;3.25;;;;;;;;;;5053915;28;20132;-92
2023/02/28 03:30:13;;;;;;;2.70;2.53;;;;;;;;;;5039319;28;20457;-91
2023/02/28 03:32:44;;;;;;;3.53;3.33;;;;;;;;;;5035458;28;20053;-91
2023/02/28 03:35:12;;;;;;;4.57;4.30;;;;;;;;;;5035024;28;20572;-92
2023/02/28 03:37:40;;;;;;;3.10;2.90;;;;;;;;;;5034897;28;20057;-92
2023/02/28 03:40:12;;;;;;;3.13;2.92;;;;;;;;;;5035340;28;20050;-91
2023/02/28 03:42:40;;;;;;;3.42;3.22;;;;;;;;;;5034967;28;20144;-91
2023/02/28 03:45:11;;;;;;;4.82;4.43;;;;;;;;;;5038631;28;20052;-91
2023/02/28 03:47:40;;;;;;;5.40;4.88;;;;;;;;;;5054810;28;20107;-92
2023/02/28 03:50:09;;;;;;;3.28;3.15;;;;;;;;;;5055187;28;20045;-91
2023/02/28 03:52:37;;;;;;;2.67;2.55;;;;;;;;;;5055179;28;20110;-90
2023/02/28 03:55:09;;;;;;;3.72;3.58;;;;;;;;;;5055317;28;20057;-90
2023/02/28 03:57:39;;;;;;;2.05;1.95;;;;;;;;;;5054777;28;20166;-91
2023/02/28 04:00:09;;;;;;;4.00;3.72;;;;;;;;;;5054675;28;20081;-92
2023/02/28 04:02:35;;;;;;;2.92;2.75;;;;;;;;;;5052666;28;20514;-91
2023/02/28 04:05:02;;;;;;;1.88;1.73;;;;;;;;;;5054943;28;20048;-91
2023/02/28 04:07:30;;;;;;;3.17;2.78;;;;;;;;;;5054596;28;20045;-89
2023/02/28 04:09:56;;;;;;;2.72;2.63;;;;;;;;;;5054864;28;20052;-89
2023/02/28 04:12:23;;;;;;;3.28;2.92;;;;;;;;;;5054966;28;20060;-90
2023/02/28 04:14:52;;;;;;;3.95;3.65;;;;;;;;;;5054610;28;20080;-93
2023/02/28 04:17:19;;;;;;;3.55;3.10;;;;;;;;;;5054796;28;20174;-92
2023/02/28 04:19:45;;;;;;;3.08;2.88;;;;;;;;;;5051798;28;20069;-90
2023/02/28 04:22:12;;;;;;;3.42;3.17;;;;;;;;;;5054654;28;20453;-92
2023/02/28 04:24:41;;;;;;;4.05;3.80;;;;;;;;;;5054763;28;20074;-92
2023/02/28 04:27:07;;;;;;;4.25;4.03;;;;;;;;;;5054346;28;20082;-91
2023/02/28 04:29:34;;;;;;;6.00;5.70;;;;;;;;;;5054569;28;20052;-92
2023/02/28 04:32:03;;;;;;;4.60;4.40;;;;;;;;;;5054601;28;20049;-92
2023/02/28 04:34:30;;;;;;;4.07;3.50;;;;;;;;;;5052988;28;20501;-90
2023/02/28 04:36:58;;;;;;;2.60;2.47;;;;;;;;;;5054262;28;20045;-90
2023/02/28 04:39:24;;;;;;;2.75;2.63;;;;;;;;;;5054491;28;20053;-90
2023/02/28 04:41:51;;;;;;;4.63;4.25;;;;;;;;;;5054168;28;20053;-91
2023/02/28 04:44:18;;;;;;;2.90;2.25;;;;;;;;;;5054257;28;20568;-91
2023/02/28 04:46:45;;;;;;;2.50;2.40;;;;;;;;;;5054108;28;20059;-91
2023/02/28 04:49:13;;;;;;;3.78;3.22;;;;;;;;;;5054214;28;20048;-93
2023/02/28 04:51:40;;;;;;;3.60;3.05;;;;;;;;;;5051425;28;20073;-91
2023/02/28 04:54:07;;;;;;;3.03;2.83;;;;;;;;;;5054059;28;20052;-91
2023/02/28 04:56:33;;;;;;;2.00;1.90;;;;;;;;;;5053760;28;20549;-90
2023/02/28 04:59:00;;;;;;;3.65;2.58;;;;;;;;;;5054220;28;20052;-90
2023/02/28 05:01:27;;;;;;;3.50;3.30;;;;;;;;;;5054019;28;20095;-91
2023/02/28 05:03:55;;;;;;;2.63;2.47;;;;;;;;;;5053970;28;20057;-89
2023/02/28 05:06:24;;;;;;;5.10;3.55;;;;;;;;;;5053672;28;20581;-90
2023/02/28 05:08:50;;;;;;;4.43;4.07;;;;;;;;;;5054272;28;20076;-91
2023/02/28 05:11:20;;;;;;;5.38;4.55;;;;;;;;;;5060243;28;20136;-92
2023/02/28 05:13:46;;;;;;;3.38;3.03;;;;;;;;;;5061180;28;20516;-93
2023/02/28 05:16:13;;;;;;;4.03;3.80;;;;;;;;;;5060790;28;20044;-92
2023/02/28 05:18:40;;;;;;;4.90;4.50;;;;;;;;;;5060959;28;20049;-93
2023/02/28 05:21:06;;;;;;;6.28;5.72;;;;;;;;;;5061101;28;20498;-92
2023/02/28 05:23:34;;;;;;;7.32;4.25;;;;;;;;;;5061096;28;20395;-91
2023/02/28 05:26:01;;;;;;;3.50;3.25;;;;;;;;;;5056624;28;20041;-92
2023/02/28 05:28:27;;;;;;;5.78;5.13;;;;;;;;;;5058449;28;20122;-91
2023/02/28 05:30:54;;;;;;;4.28;3.97;;;;;;;;;;5060636;28;20049;-92
2023/02/28 05:33:20;;;;;;;4.45;4.25;;;;;;;;;;5060468;28;20053;-91
2023/02/28 05:35:47;;;;;;;6.72;4.50;;;;;;;;;;5060704;28;20045;-91
2023/02/28 05:38:13;;;;;;;4.72;4.43;;;;;;;;;;5060273;28;20045;-91
2023/02/28 05:40:41;;;;;;;5.07;4.75;;;;;;;;;;5060659;28;20071;-93
2023/02/28 05:43:11;;;;;;;3.55;3.25;;;;;;;;;;5058346;28;20049;-93
2023/02/28 05:45:38;;;;;;;4.40;3.88;;;;;;;;;;5060569;28;20769;-92
2023/02/28 05:48:04;;;;;;;4.43;4.03;;;;;;;;;;5060477;28;20056;-92
2023/02/28 05:50:31;;;;;;;5.18;4.90;;;;;;;;;;5060900;28;20141;-91
2023/02/28 05:52:58;;;;;;;4.63;4.43;;;;;;;;;;5060315;28;20052;-92
2023/02/28 05:55:24;;;;;;;4.63;4.40;;;;;;;;;;5061326;28;20052;-91
2023/02/28 05:57:52;;;;;;;3.50;3.20;;;;;;;;;;5061307;28;20059;-91
2023/02/28 06:00:19;;;;;;;4.25;3.95;;;;;;;;;;5057369;28;20041;-89
2023/02/28 06:02:46;;;;;;;4.07;3.65;;;;;;;;;;5060157;28;20053;-90
2023/02/28 06:05:14;;;;;;;4.70;4.40;;;;;;;;;;5059519;28;20600;-90
2023/02/28 06:07:42;;;;;;;4.25;3.85;;;;;;;;;;5059687;28;20053;-91
2023/02/28 06:10:10;;;;;;;3.70;3.47;;;;;;;;;;5059761;28;20047;-90
2023/02/28 06:12:36;;;;;;;4.85;4.45;;;;;;;;;;5059924;28;20107;-91
2023/02/28 06:15:04;;;;;;;4.03;3.60;;;;;;;;;;5060233;28;20052;-90
2023/02/28 06:17:31;;;;;;;4.10;3.83;;;;;;;;;;5060189;28;20045;-91
2023/02/28 06:19:57;;;;;;;2.25;2.15;;;;;;;;;;5052836;28;20068;-90
2023/02/28 06:22:24;;;;;;;4.25;3.97;;;;;;;;;;5050310;28;20127;-91
2023/02/28 06:24:52;;;;;;;7.65;6.05;;;;;;;;;;5036121;28;20053;-91
2023/02/28 06:27:20;;;;;;;5.70;5.18;;;;;;;;;;5036173;28;20053;-91
2023/02/28 06:29:47;;;;;;;5.90;5.07;;;;;;;;;;5036376;28;20099;-91
2023/02/28 06:32:14;;;;;;;3.42;3.22;;;;;;;;;;5036345;28;20153;-90
2023/02/28 06:34:41;;;;;;;5.18;4.18;;;;;;;;;;5039891;28;20053;-90
2023/02/28 06:37:07;;;;;;;8.65;6.88;;;;;;;;;;5056045;28;20460;-90
2023/02/28 06:39:34;;;;;;;5.95;5.55;;;;;;;;;;5056138;28;20103;-91
2023/02/28 06:42:01;;;;;;;5.95;5.50;;;;;;;;;;5056369;28;20111;-90
2023/02/28 06:44:33;;;;;;;4.63;4.07;;;;;;;;;;5055776;28;20172;-91
2023/02/28 06:46:59;;;;;;;6.38;4.78;;;;;;;;;;5055962;28;20060;-91
2023/02/28 06:49:27;;;;;;;7.85;6.75;;;;;;;;;;5056012;28;20052;-90
2023/02/28 06:51:54;;;;;;;3.90;3.58;;;;;;;;;;5053016;28;20049;-90
2023/02/28 06:54:21;;;;;;;6.25;5.72;;;;;;;;;;5053478;28;20438;-91
2023/02/28 06:56:48;;;;;;;6.15;5.60;;;;;;;;;;5053673;28;20037;-91
2023/02/28 06:59:15;;;;;;;7.05;5.93;;;;;;;;;;5055713;28;20047;-91
2023/02/28 07:01:41;;;;;;;4.15;3.85;;;;;;;;;;5050624;28;20053;-89
2023/02/28 07:04:08;;;;;;;6.07;5.57;;;;;;;;;;5055614;28;20098;-90
2023/02/28 07:06:36;;;;;;;6.38;5.97;;;;;;;;;;5060845;28;20044;-90
2023/02/28 07:09:03;;;;;;;5.18;4.88;;;;;;;;;;5075104;28;20413;-90
2023/02/28 07:11:30;;;;;;;6.00;4.82;;;;;;;;;;5075612;28;20049;-90
2023/02/28 07:13:57;;;;;;;6.57;5.32;;;;;;;;;;5056787;28;20387;-89
2023/02/28 07:16:25;;;;;;;6.68;4.57;;;;;;;;;;5054895;28;20086;-91
2023/02/28 07:18:53;;;;;;;6.00;5.60;;;;;;;;;;5055434;28;20079;-90
2023/02/28 07:21:20;;;;;;;3.65;3.40;;;;;;;;;;5055798;28;20469;-89
2023/02/28 07:23:48;;;;;;;4.35;4.15;;;;;;;;;;5056452;28;20045;-90
2023/02/28 07:26:15;;;;;;;5.35;5.05;;;;;;;;;;5055319;28;20132;-91
2023/02/28 07:28:42;;;;;;;3.90;3.67;;;;;;;;;;5055479;28;20549;-90
2023/02/28 07:31:09;;;;;;;5.28;4.82;;;;;;;;;;5054587;28;20136;-89
2023/02/28 07:33:36;;;;;;;6.22;5.78;;;;;;;;;;5054907;28;20975;-90
2023/02/28 07:36:03;;;;;;;4.80;4.50;;;;;;;;;;5050404;28;20041;-90
2023/02/28 07:38:30;;;;;;;5.15;4.68;;;;;;;;;;5054541;28;20110;-90
2023/02/28 07:40:57;;;;;;;3.78;3.45;;;;;;;;;;5054579;28;20458;-88
2023/02/28 07:43:24;;;;;;;4.72;4.43;;;;;;;;;;5054963;28;20071;-89
2023/02/28 07:45:51;;;;;;;6.78;3.78;;;;;;;;;;5054557;28;20052;-89
2023/02/28 07:48:17;;;;;;;5.65;4.93;;;;;;;;;;5054577;28;20041;-88
2023/02/28 07:50:44;;;;;;;4.95;4.50;;;;;;;;;;5054541;28;20053;-89
2023/02/28 07:53:10;;;;;;;5.45;4.03;;;;;;;;;;5054838;28;20095;-88
2023/02/28 07:55:37;;;;;;;2.90;2.70;;;;;;;;;;5054389;28;20491;-89
2023/02/28 07:58:05;;;;;;;7.18;6.47;;;;;;;;;;5054493;28;20132;-89
2023/02/28 08:00:32;;;;;;;5.28;4.82;;;;;;;;;;5053392;28;20091;-88
2023/02/28 08:02:59;;;;;;;9.23;7.32;;;;;;;;;;5054123;28;20045;-88
2023/02/28 08:05:25;;;;;;;5.00;4.43;;;;;;;;;;5053609;28;20052;-89
2023/02/28 08:07:53;;;;;;;8.20;4.00;;;;;;;;;;5054425;28;20048;-88
2023/02/28 08:10:19;;;;;;;7.95;5.15;;;;;;;;;;5054685;28;20045;-88
2023/02/28 08:12:46;;;;;;;7.32;5.93;;;;;;;;;;5051012;28;20046;-89
2023/02/28 08:15:14;;;;;;;6.50;6.00;;;;;;;;;;5040321;28;20057;-88
2023/02/28 08:17:40;;;;;;;8.80;4.82;;;;;;;;;;5052754;28;20041;-89
2023/02/28 08:20:08;;;;;;;4.63;4.25;;;;;;;;;;5053863;28;20510;-89
2023/02/28 08:22:35;;;;;;;3.90;3.60;;;;;;;;;;5054003;28;20395;-90
2023/02/28 08:25:01;;;;;;;9.43;4.55;;;;;;;;;;5053722;28;20544;-90
2023/02/28 08:27:28;;;;;;;4.32;4.10;;;;;;;;;;5053729;28;20041;-90
2023/02/28 08:29:55;;;;;;;5.53;4.78;;;;;;;;;;5053342;28;20098;-88
2023/02/28 08:32:22;;;;;;;4.57;4.22;;;;;;;;;;5054121;28;20071;-90
2023/02/28 08:34:49;;;;;;;5.38;4.97;;;;;;;;;;5053746;28;20053;-90
2023/02/28 08:37:15;;;;;;;4.40;4.10;;;;;;;;;;5053774;28;20056;-89
2023/02/28 08:39:42;;;;;;;5.70;5.25;;;;;;;;;;5053233;28;20514;-89
2023/02/28 08:42:09;;;;;;;5.72;5.32;;;;;;;;;;5052896;28;20102;-89
2023/02/28 08:44:35;;;;;;;4.93;4.53;;;;;;;;;;5052703;28;20146;-88
2023/02/28 08:47:02;;;;;;;4.00;3.80;;;;;;;;;;5053475;28;20504;-89
2023/02/28 08:49:30;;;;;;;8.48;4.15;;;;;;;;;;5053248;28;20048;-89
2023/02/28 08:51:57;;;;;;;4.53;4.30;;;;;;;;;;5053834;28;20469;-89
2023/02/28 08:54:30;;;;;;;10.85;5.72;;;;;;;;;;5053780;28;20076;-89
2023/02/28 08:56:56;;;;;;;4.25;3.88;;;;;;;;;;5053964;28;20047;-89
2023/02/28 08:59:23;;;;;;;6.43;6.00;;;;;;;;;;5053592;28;20049;-89
2023/02/28 09:01:49;;;;;;;4.65;4.32;;;;;;;;;;5053629;28;20053;-88
2023/02/28 09:04:16;;;;;;;5.78;5.40;;;;;;;;;;5053371;28;20469;-87
2023/02/28 09:06:44;;;;;;;3.97;3.63;;;;;;;;;;5053113;28;20049;-88
2023/02/28 09:09:11;;;;;;;7.22;6.57;;;;;;;;;;5053557;28;20072;-88
2023/02/28 09:11:38;;;;;;;7.57;6.40;;;;;;;;;;5055023;28;20387;-88
2023/02/28 09:14:04;;;;;;;5.75;5.38;;;;;;;;;;5053104;28;20063;-88
2023/02/28 09:16:31;;;;;;;5.45;5.05;;;;;;;;;;5053254;28;20072;-88
2023/02/28 09:18:58;;;;;;;5.95;5.38;;;;;;;;;;5053104;28;20148;-88
2023/02/28 09:21:24;;;;;;;8.98;8.18;;;;;;;;;;5053500;28;20099;-87
2023/02/28 09:23:53;;;;;;;10.40;8.07;;;;;;;;;;5053250;28;20099;-88
2023/02/28 09:28:55;;;;;;;5.57;5.07;;;;;;;;;;4825179;22;20160;-88
2023/02/28 09:31:22;;;;;;;7.35;6.72;;;;;;;;;;5074824;22;20049;-87
2023/02/28 09:33:49;;;;;;;9.30;8.50;;;;;;;;;;5051558;28;20481;-86
2023/02/28 09:36:15;;;;;;;9.07;6.90;;;;;;;;;;5044421;28;20060;-87
2023/02/28 09:38:42;;;;;;;8.52;8.05;;;;;;;;;;5031699;28;20552;-87
2023/02/28 09:41:15;;;;;;;4.55;4.28;;;;;;;;;;5031925;28;20056;-87
2023/02/28 09:43:44;;;;;;;4.50;4.20;;;;;;;;;;5032072;28;20055;-86
2023/02/28 09:46:14;;;;;;;8.52;5.00;;;;;;;;;;5031717;28;20080;-87
2023/02/28 09:48:45;;;;;;;7.68;7.05;;;;;;;;;;5037373;28;20547;-87
2023/02/28 09:51:16;;;;;;;7.85;6.88;;;;;;;;;;5051703;28;20053;-87
2023/02/28 09:53:43;;;;;;;6.75;6.35;;;;;;;;;;5051538;28;20110;-87
2023/02/28 09:56:10;;;;;;;7.82;6.57;;;;;;;;;;5054612;28;20053;-87
2023/02/28 09:58:42;;;;;;;6.03;4.82;;;;;;;;;;5045058;28;20049;-87
2023/02/28 10:01:13;;;;;;;6.18;5.78;;;;;;;;;;5035650;28;20103;-87
2023/02/28 10:03:41;;;;;;;6.07;5.22;;;;;;;;;;5040526;28;20111;-87
2023/02/28 10:06:09;;;;;;;7.43;6.80;;;;;;;;;;5048658;28;20128;-87
2023/02/28 10:08:44;;;;;;;5.43;3.90;;;;;;;;;;5036906;28;20046;-87
2023/02/28 10:11:12;;;;;;;6.03;5.63;;;;;;;;;;5038097;28;20513;-87
2023/02/28 10:13:47;;;;;;;13.45;6.18;;;;;;;;;;5055672;28;20049;-88
2023/02/28 10:16:16;;;;;;;5.35;4.95;;;;;;;;;;5047565;28;20084;-87
2023/02/28 10:18:44;;;;;;;5.57;5.07;;;;;;;;;;5046569;28;20057;-87
2023/02/28 10:21:18;;;;;;;4.45;4.05;;;;;;;;;;5054966;28;20049;-87
2023/02/28 10:23:47;;;;;;;4.35;4.13;;;;;;;;;;5054904;28;20052;-88
2023/02/28 10:26:15;;;;;;;5.75;5.25;;;;;;;;;;5047007;28;20057;-87
2023/02/28 10:28:44;;;;;;;9.40;5.30;;;;;;;;;;5038268;28;20498;-87
2023/02/28 10:31:12;;;;;;;4.97;4.63;;;;;;;;;;5054416;28;20148;-87
2023/02/28 10:33:39;;;;;;;7.20;6.70;;;;;;;;;;5038415;28;20056;-88
2023/02/28 10:36:07;;;;;;;4.47;4.18;;;;;;;;;;5048268;28;20074;-88
2023/02/28 10:38:35;;;;;;;8.32;7.82;;;;;;;;;;5039949;28;20045;-87
2023/02/28 10:41:05;;;;;;;6.20;5.57;;;;;;;;;;5054015;28;20453;-87
2023/02/28 10:43:31;;;;;;;5.30;4.90;;;;;;;;;;5052938;28;20450;-87
2023/02/28 10:46:04;;;;;;;7.07;6.38;;;;;;;;;;5034055;28;20490;-87
2023/02/28 10:48:36;;;;;;;5.78;5.38;;;;;;;;;;5035494;28;20115;-88
2023/02/28 10:51:03;;;;;;;6.88;5.88;;;;;;;;;;5054530;28;20057;-87
2023/02/28 10:53:34;;;;;;;6.07;5.53;;;;;;;;;;5053875;28;20052;-88
2023/02/28 10:56:02;;;;;;;7.47;6.35;;;;;;;;;;5053553;28;20055;-88
2023/02/28 10:58:30;;;;;;;18.55;8.52;;;;;;;;;;5053855;28;20456;-87
2023/02/28 11:00:57;;;;;;;5.22;4.93;;;;;;;;;;5050280;28;20061;-87
2023/02/28 11:03:26;;;;;;;11.07;8.10;;;;;;;;;;5054320;28;20506;-87
2023/02/28 11:05:52;;;;;;;6.70;6.18;;;;;;;;;;5053560;28;20489;-87
2023/02/28 11:08:19;;;;;;;8.15;7.65;;;;;;;;;;5053500;28;20091;-87
2023/02/28 11:10:47;;;;;;;7.00;6.47;;;;;;;;;;5048825;28;20095;-87
2023/02/28 11:13:17;;;;;;;11.27;7.85;;;;;;;;;;5053701;28;20049;-87
2023/02/28 11:15:43;;;;;;;;;;;;;;;;;;5054619;28;20048;-87
2023/02/28 11:18:20;;;;;;;7.07;6.20;;;;;;;;;;5037520;28;19967;-87
2023/02/28 11:20:50;;;;;;;9.52;8.80;;;;;;;;;;5035954;28;20057;-87
2023/02/28 11:23:18;;;;;;;7.40;6.88;;;;;;;;;;5033836;28;20053;-87
2023/02/28 11:25:48;;;;;;;8.65;8.02;;;;;;;;;;5046042;28;20080;-87
2023/02/28 11:28:25;;;;;;;9.55;8.85;;;;;;;;;;5053397;28;20048;-87
2023/02/28 11:31:01;;;;;;;8.30;6.20;;;;;;;;;;5053702;28;20053;-87
2023/02/28 11:33:29;;;;;;;7.65;7.13;;;;;;;;;;5053640;28;20131;-87
2023/02/28 11:35:59;;;;;;;10.07;7.00;;;;;;;;;;5048369;28;20051;-87
2023/02/28 11:38:26;;;;;;;8.15;5.97;;;;;;;;;;5033913;28;20052;-87
2023/02/28 11:40:59;;;;;;;7.63;6.72;;;;;;;;;;5033103;28;20046;-87
2023/02/28 11:43:31;;;;;;;7.50;6.80;;;;;;;;;;5033582;28;20049;-87
2023/02/28 11:46:11;;;;;;;9.57;7.80;;;;;;;;;;5033004;28;20050;-88
2023/02/28 11:48:42;;;;;;;6.15;5.55;;;;;;;;;;5033339;28;20049;-88
2023/02/28 11:51:15;;;;;;;4.45;4.22;;;;;;;;;;5043130;28;20514;-87
2023/02/28 11:54:04;;;;;;;9.38;8.35;;;;;;;;;;5052962;28;20052;-89
2023/02/28 11:56:33;;;;;;;8.65;8.02;;;;;;;;;;5052570;28;20079;-88
2023/02/28 11:59:05;;;;;;;7.88;7.28;;;;;;;;;;5053646;28;20555;-88
2023/02/28 12:01:40;;;;;;;9.75;8.70;;;;;;;;;;5053028;28;20540;-87
2023/02/28 12:04:15;;;;;;;5.72;5.15;;;;;;;;;;5050541;28;20126;-88
2023/02/28 12:06:46;;;;;;;6.40;5.90;;;;;;;;;;5053300;28;20049;-88
2023/02/28 12:09:20;;;;;;;9.77;9.15;;;;;;;;;;5050560;28;20045;-88
2023/02/28 12:11:51;;;;;;;6.50;6.13;;;;;;;;;;5055584;28;20053;-89
2023/02/28 12:14:24;;;;;;;14.52;8.73;;;;;;;;;;5047069;28;20115;-87
2023/02/28 12:16:56;;;;;;;10.02;7.60;;;;;;;;;;5052915;28;20045;-87
2023/02/28 12:19:24;;;;;;;8.95;7.75;;;;;;;;;;5051922;28;20110;-87
2023/02/28 12:22:09;;;;;;;8.57;8.02;;;;;;;;;;5053448;28;20049;-88
2023/02/28 12:24:50;;;;;;;10.23;9.32;;;;;;;;;;5053012;28;20053;-87
2023/02/28 12:27:20;;;;;;;12.85;10.13;;;;;;;;;;5048623;28;20099;-87
2023/02/28 12:29:50;;;;;;;6.63;6.10;;;;;;;;;;5052733;28;20657;-87
2023/02/28 12:32:19;;;;;;;11.00;9.43;;;;;;;;;;5052427;28;20511;-87
2023/02/28 12:34:48;;;;;;;5.93;5.43;;;;;;;;;;5052779;28;20049;-88
2023/02/28 12:37:17;;;;;;;9.07;8.40;;;;;;;;;;5053020;28;20041;-87
2023/02/28 12:39:45;;;;;;;8.30;7.70;;;;;;;;;;5047853;28;20054;-87
2023/02/28 12:42:14;;;;;;;6.75;6.18;;;;;;;;;;5033084;28;20119;-87
2023/02/28 12:44:45;;;;;;;10.50;9.75;;;;;;;;;;5033193;28;20068;-87
2023/02/28 12:47:15;;;;;;;6.72;5.75;;;;;;;;;;5032608;28;20050;-87
2023/02/28 12:49:46;;;;;;;9.15;7.05;;;;;;;;;;5032887;28;20049;-87
2023/02/28 12:52:16;;;;;;;7.28;6.65;;;;;;;;;;5032417;28;20572;-87
2023/02/28 12:54:45;;;;;;;5.50;4.72;;;;;;;;;;5036430;28;20476;-87
2023/02/28 12:57:16;;;;;;;5.93;5.53;;;;;;;;;;5052575;28;20049;-87
2023/02/28 12:59:48;;;;;;;6.85;6.43;;;;;;;;;;5047247;28;20077;-87
2023/02/28 13:02:44;;;;;;;6.60;6.07;;;;;;;;;;5047211;28;20556;-88
2023/02/28 13:05:24;;;;;;;5.65;5.25;;;;;;;;;;4958298;28;20503;-86
2023/02/28 13:08:05;;;;;;;10.75;9.35;;;;;;;;;;4970560;28;20046;-87
2023/02/28 13:10:41;;;;;;;11.68;10.93;;;;;;;;;;4963319;28;20043;-87
2023/02/28 13:13:14;;;;;;;13.18;8.73;;;;;;;;;;4965519;28;20051;-87
2023/02/28 13:15:57;;;;;;;8.55;7.78;;;;;;;;;;4965443;28;20057;-87
2023/02/28 13:18:23;;;;;;;;;;;;;;;;;;4951520;29;20047;-87
2023/02/28 13:20:51;;;;;;;9.73;8.25;;;;;;;;;;4953433;28;20367;-87
2023/02/28 13:23:32;;;;;;;7.97;7.15;;;;;;;;;;4963690;28;20194;-88
2023/02/28 13:26:01;;;;;;;7.93;7.35;;;;;;;;;;4959289;28;20121;-87
2023/02/28 13:28:53;;;;;;;6.95;6.38;;;;;;;;;;4970157;28;20057;-87
2023/02/28 13:31:21;;;;;;;6.03;5.53;;;;;;;;;;4948580;28;20675;-87
2023/02/28 13:34:07;;;;;;;8.50;8.02;;;;;;;;;;4957893;28;20047;-87
2023/02/28 13:36:33;;;;;;;7.03;6.40;;;;;;;;;;4971090;28;20051;-87
2023/02/28 13:39:01;;;;;;;8.63;7.97;;;;;;;;;;5002366;28;20052;-86
2023/02/28 13:41:47;;;;;;;7.40;6.88;;;;;;;;;;5053603;28;20132;-87
2023/02/28 13:44:15;;;;;;;10.32;8.00;;;;;;;;;;5050255;28;20498;-88
2023/02/28 13:47:08;;;;;;;5.25;4.78;;;;;;;;;;5047675;28;20552;-87
2023/02/28 13:49:36;;;;;;;13.52;5.82;;;;;;;;;;4954120;29;20414;-86
2023/02/28 13:52:08;;;;;;;8.70;8.10;;;;;;;;;;4933920;29;20110;-86
2023/02/28 13:54:41;;;;;;;8.32;7.50;;;;;;;;;;4941403;29;20137;-87
2023/02/28 13:57:12;;;;;;;8.93;8.25;;;;;;;;;;4945396;29;20051;-86
2023/02/28 13:59:44;;;;;;;8.90;8.30;;;;;;;;;;4937177;29;20067;-86
2023/02/28 14:02:26;;;;;;;9.55;8.55;;;;;;;;;;4934167;29;20055;-86
2023/02/28 14:05:01;;;;;;;6.97;6.55;;;;;;;;;;4942732;29;20055;-87
2023/02/28 14:07:29;;;;;;;6.00;5.60;;;;;;;;;;4939420;29;20052;-86
2023/02/28 14:09:58;;;;;;;5.63;5.20;;;;;;;;;;4952622;29;20071;-87
2023/02/28 14:12:43;;;;;;;7.75;7.07;;;;;;;;;;4939296;29;20936;-86
2023/02/28 14:15:25;;;;;;;8.52;7.82;;;;;;;;;;4945489;29;20051;-86
2023/02/28 14:17:52;;;;;;;7.70;7.13;;;;;;;;;;4952354;29;20055;-87
2023/02/28 14:20:21;;;;;;;9.38;7.72;;;;;;;;;;4948628;29;20851;-87
2023/02/28 14:22:54;;;;;;;7.78;5.25;;;;;;;;;;4935196;29;20729;-89
2023/02/28 14:25:24;;;;;;;9.27;7.47;;;;;;;;;;4982351;28;20059;-87
2023/02/28 14:27:56;;;;;;;8.60;8.07;;;;;;;;;;5049120;28;20045;-87
2023/02/28 14:30:41;;;;;;;7.22;6.68;;;;;;;;;;5034568;28;20049;-87
2023/02/28 14:33:23;;;;;;;5.97;5.55;;;;;;;;;;5034176;28;20103;-87
2023/02/28 14:36:09;;;;;;;9.20;8.15;;;;;;;;;;5041732;28;20115;-88
2023/02/28 14:38:42;;;;;;;7.75;7.20;;;;;;;;;;5054132;28;20063;-88
2023/02/28 14:41:15;;;;;;;8.00;6.50;;;;;;;;;;5042514;28;20053;-88
2023/02/28 14:43:49;;;;;;;6.05;5.70;;;;;;;;;;5052318;28;20053;-88
2023/02/28 14:46:15;;;;;;;5.32;4.93;;;;;;;;;;5047747;28;20116;-89
2023/02/28 14:48:46;;;;;;;15.20;8.98;;;;;;;;;;5034683;28;20099;-88
2023/02/28 14:51:13;;;;;;;7.63;7.05;;;;;;;;;;5045785;28;20044;-87
2023/02/28 14:53:41;;;;;;;6.63;6.03;;;;;;;;;;5054150;28;20166;-87
2023/02/28 14:56:18;;;;;;;8.43;7.53;;;;;;;;;;5034872;28;20053;-89
2023/02/28 14:58:52;;;;;;;5.43;5.03;;;;;;;;;;5035149;28;20108;-87